sensor_id;sensor_type;location;lat;lon;timestamp;pressure;altitude;pressure_sealevel;temperature;humidity
29239;BME280;16267;48.194;11.546;2023-04-01T00:00:57;94754.63;;;8.12;79.62
29239;BME280;16267;48.194;11.546;2023-04-01T00:03:25;94766.63;;;8.04;79.78
29239;BME280;16267;48.194;11.546;2023-04-01T00:05:54;94751.59;;;8.10;80.09
29239;BME280;16267;48.194;11.546;2023-04-01T00:08:21;94751.25;;;8.08;79.82
29239;BME280;16267;48.194;11.546;2023-04-01T00:10:47;94755.66;;;7.98;80.08
29239;BME280;16267;48.194;11.546;2023-04-01T00:13:13;94746.38;;;8.03;79.98
29239;BME280;16267;48.194;11.546;2023-04-01T00:15:39;94743.53;;;7.94;80.42
29239;BME280;16267;48.194;11.546;2023-04-01T00:18:05;94739.41;;;7.89;80.62
29239;BME280;16267;48.194;11.546;2023-04-01T00:20:31;94733.09;;;7.99;80.41
29239;BME280;16267;48.194;11.546;2023-04-01T00:22:57;94739.84;;;7.88;81.07
29239;BME280;16267;48.194;11.546;2023-04-01T00:25:23;94735.78;;;7.99;80.37
29239;BME280;16267;48.194;11.546;2023-04-01T00:27:49;94736.19;;;7.98;80.75
29239;BME280;16267;48.194;11.546;2023-04-01T00:30:16;94738.72;;;8.05;80.36
29239;BME280;16267;48.194;11.546;2023-04-01T00:32:42;94739.31;;;8.13;80.02
29239;BME280;16267;48.194;11.546;2023-04-01T00:35:08;94737.63;;;8.02;80.09
29239;BME280;16267;48.194;11.546;2023-04-01T00:37:37;94734.28;;;7.98;79.71
29239;BME280;16267;48.194;11.546;2023-04-01T00:40:08;94732.19;;;8.06;79.42
29239;BME280;16267;48.194;11.546;2023-04-01T00:42:43;94724.38;;;8.15;79.88
29239;BME280;16267;48.194;11.546;2023-04-01T00:45:32;94726.84;;;8.06;79.81
29239;BME280;16267;48.194;11.546;2023-04-01T00:48:04;94743.66;;;8.07;79.64
29239;BME280;16267;48.194;11.546;2023-04-01T00:50:32;94735.06;;;8.15;79.27
29239;BME280;16267;48.194;11.546;2023-04-01T00:53:00;94732.19;;;8.06;79.67
29239;BME280;16267;48.194;11.546;2023-04-01T00:55:29;94733.56;;;8.14;79.07
29239;BME280;16267;48.194;11.546;2023-04-01T00:57:57;94732.41;;;8.15;79.47
29239;BME280;16267;48.194;11.546;2023-04-01T01:00:24;94736.53;;;8.00;80.19
29239;BME280;16267;48.194;11.546;2023-04-01T01:02:50;94737.00;;;7.95;80.36
29239;BME280;16267;48.194;11.546;2023-04-01T01:05:21;94729.19;;;8.04;80.38
29239;BME280;16267;48.194;11.546;2023-04-01T01:08:13;94726.53;;;8.04;80.38
29239;BME280;16267;48.194;11.546;2023-04-01T01:10:43;94731.88;;;8.04;79.76
29239;BME280;16267;48.194;11.546;2023-04-01T01:13:53;94732.19;;;8.06;79.63
29239;BME280;16267;48.194;11.546;2023-04-01T01:16:30;94731.72;;;8.11;80.02
29239;BME280;16267;48.194;11.546;2023-04-01T01:28:29;94732.66;;;7.85;83.88
29239;BME280;16267;48.194;11.546;2023-04-01T01:36:42;94724.22;;;7.86;83.11
29239;BME280;16267;48.194;11.546;2023-04-01T01:39:11;94725.25;;;7.72;83.37
29239;BME280;16267;48.194;11.546;2023-04-01T01:41:39;94726.69;;;7.77;83.36
29239;BME280;16267;48.194;11.546;2023-04-01T01:44:13;94723.75;;;7.71;82.84
29239;BME280;16267;48.194;11.546;2023-04-01T01:46:41;94721.28;;;7.80;83.25
29239;BME280;16267;48.194;11.546;2023-04-01T01:49:09;94720.03;;;7.85;82.26
29239;BME280;16267;48.194;11.546;2023-04-01T01:51:36;94719.22;;;7.88;82.00
29239;BME280;16267;48.194;11.546;2023-04-01T01:54:02;94715.44;;;7.86;82.07
29239;BME280;16267;48.194;11.546;2023-04-01T01:56:29;94727.63;;;7.67;82.24
29239;BME280;16267;48.194;11.546;2023-04-01T01:59:02;94727.50;;;7.74;82.21
29239;BME280;16267;48.194;11.546;2023-04-01T02:01:32;94725.59;;;7.74;82.23
29239;BME280;16267;48.194;11.546;2023-04-01T02:04:00;94726.59;;;7.80;82.04
29239;BME280;16267;48.194;11.546;2023-04-01T02:06:32;94729.44;;;7.73;81.88
29239;BME280;16267;48.194;11.546;2023-04-01T02:09:08;94729.44;;;7.73;81.52
29239;BME280;16267;48.194;11.546;2023-04-01T02:11:53;94731.56;;;7.82;80.73
29239;BME280;16267;48.194;11.546;2023-04-01T02:14:33;94727.84;;;7.76;80.77
29239;BME280;16267;48.194;11.546;2023-04-01T02:17:10;94729.34;;;7.77;80.90
29239;BME280;16267;48.194;11.546;2023-04-01T02:19:49;94738.66;;;7.89;80.45
29239;BME280;16267;48.194;11.546;2023-04-01T02:22:25;94740.59;;;7.68;80.11
29239;BME280;16267;48.194;11.546;2023-04-01T02:24:59;94721.28;;;7.80;80.48
29239;BME280;16267;48.194;11.546;2023-04-01T02:27:27;94733.41;;;7.85;80.19
29239;BME280;16267;48.194;11.546;2023-04-01T02:29:53;94745.56;;;7.86;79.84
29239;BME280;16267;48.194;11.546;2023-04-01T02:32:20;94741.41;;;7.85;79.53
29239;BME280;16267;48.194;11.546;2023-04-01T02:34:47;94744.09;;;7.85;79.66
29239;BME280;16267;48.194;11.546;2023-04-01T02:37:14;94739.28;;;7.96;79.14
29239;BME280;16267;48.194;11.546;2023-04-01T02:39:40;94742.03;;;7.93;79.60
29239;BME280;16267;48.194;11.546;2023-04-01T02:42:08;94740.78;;;7.77;79.34
29239;BME280;16267;48.194;11.546;2023-04-01T02:44:34;94741.63;;;7.74;79.58
29239;BME280;16267;48.194;11.546;2023-04-01T02:47:00;94745.22;;;7.84;79.98
29239;BME280;16267;48.194;11.546;2023-04-01T02:49:26;94753.66;;;7.82;79.86
29239;BME280;16267;48.194;11.546;2023-04-01T02:51:51;94744.47;;;7.83;79.57
29239;BME280;16267;48.194;11.546;2023-04-01T02:54:18;94748.53;;;7.92;79.91
29239;BME280;16267;48.194;11.546;2023-04-01T02:56:44;94739.09;;;7.87;79.61
29239;BME280;16267;48.194;11.546;2023-04-01T02:59:11;94742.63;;;7.80;80.02
29239;BME280;16267;48.194;11.546;2023-04-01T03:01:37;94753.50;;;7.90;80.06
29239;BME280;16267;48.194;11.546;2023-04-01T03:04:03;94762.56;;;7.76;79.56
29239;BME280;16267;48.194;11.546;2023-04-01T03:06:28;94759.41;;;7.81;79.54
29239;BME280;16267;48.194;11.546;2023-04-01T03:08:54;94754.34;;;7.87;79.64
29239;BME280;16267;48.194;11.546;2023-04-01T03:11:20;94753.75;;;7.79;79.88
29239;BME280;16267;48.194;11.546;2023-04-01T03:13:47;94757.38;;;7.89;79.88
29239;BME280;16267;48.194;11.546;2023-04-01T03:16:13;94753.13;;;7.91;80.03
29239;BME280;16267;48.194;11.546;2023-04-01T03:18:38;94753.66;;;7.82;79.71
29239;BME280;16267;48.194;11.546;2023-04-01T03:21:33;94766.13;;;7.89;79.36
29239;BME280;16267;48.194;11.546;2023-04-01T03:23:59;94755.50;;;7.86;79.09
29239;BME280;16267;48.194;11.546;2023-04-01T03:26:25;94754.03;;;7.85;79.07
29239;BME280;16267;48.194;11.546;2023-04-01T03:28:53;94760.50;;;7.83;78.82
29239;BME280;16267;48.194;11.546;2023-04-01T03:31:19;94757.84;;;7.83;79.03
29239;BME280;16267;48.194;11.546;2023-04-01T03:33:45;94760.94;;;7.82;78.84
29239;BME280;16267;48.194;11.546;2023-04-01T03:36:11;94766.13;;;7.69;78.96
29239;BME280;16267;48.194;11.546;2023-04-01T03:38:41;94776.81;;;7.69;79.13
29239;BME280;16267;48.194;11.546;2023-04-01T03:41:13;94777.50;;;7.73;78.32
29239;BME280;16267;48.194;11.546;2023-04-01T03:43:39;94783.81;;;7.83;78.31
29239;BME280;16267;48.194;11.546;2023-04-01T03:46:05;94784.34;;;7.74;78.63
29239;BME280;16267;48.194;11.546;2023-04-01T03:48:31;94780.38;;;7.63;79.32
29239;BME280;16267;48.194;11.546;2023-04-01T03:50:56;94785.53;;;7.73;78.73
29239;BME280;16267;48.194;11.546;2023-04-01T03:53:22;94782.56;;;7.68;79.08
29239;BME280;16267;48.194;11.546;2023-04-01T03:55:48;94787.09;;;7.71;78.89
29239;BME280;16267;48.194;11.546;2023-04-01T03:58:14;94779.84;;;7.71;79.34
29239;BME280;16267;48.194;11.546;2023-04-01T04:00:40;94780.50;;;7.75;79.06
29239;BME280;16267;48.194;11.546;2023-04-01T04:03:06;94781.69;;;7.74;79.29
29239;BME280;16267;48.194;11.546;2023-04-01T04:05:32;94793.47;;;7.77;79.37
29239;BME280;16267;48.194;11.546;2023-04-01T04:07:58;94784.53;;;7.64;79.57
29239;BME280;16267;48.194;11.546;2023-04-01T04:10:23;94797.50;;;7.65;79.85
29239;BME280;16267;48.194;11.546;2023-04-01T04:12:51;94792.47;;;7.67;80.48
29239;BME280;16267;48.194;11.546;2023-04-01T04:15:17;94793.03;;;7.58;80.37
29239;BME280;16267;48.194;11.546;2023-04-01T04:17:45;94794.94;;;7.58;81.02
29239;BME280;16267;48.194;11.546;2023-04-01T04:20:10;94797.34;;;7.52;81.18
29239;BME280;16267;48.194;11.546;2023-04-01T04:22:36;94786.47;;;7.40;81.92
29239;BME280;16267;48.194;11.546;2023-04-01T04:25:02;94785.97;;;7.48;81.81
29239;BME280;16267;48.194;11.546;2023-04-01T04:27:28;94780.22;;;7.50;82.17
29239;BME280;16267;48.194;11.546;2023-04-01T04:29:54;94785.56;;;7.50;82.04
29239;BME280;16267;48.194;11.546;2023-04-01T04:32:19;94791.09;;;7.59;81.69
29239;BME280;16267;48.194;11.546;2023-04-01T04:34:45;94789.81;;;7.67;82.16
29239;BME280;16267;48.194;11.546;2023-04-01T04:37:11;94791.81;;;7.63;81.55
29239;BME280;16267;48.194;11.546;2023-04-01T04:39:37;94803.94;;;7.68;81.36
29239;BME280;16267;48.194;11.546;2023-04-01T04:42:02;94801.66;;;7.66;81.28
29239;BME280;16267;48.194;11.546;2023-04-01T04:44:28;94792.44;;;7.71;81.21
29239;BME280;16267;48.194;11.546;2023-04-01T04:46:54;94797.81;;;7.67;81.54
29239;BME280;16267;48.194;11.546;2023-04-01T04:49:20;94802.84;;;7.65;81.77
29239;BME280;16267;48.194;11.546;2023-04-01T04:51:45;94806.34;;;7.62;81.96
29239;BME280;16267;48.194;11.546;2023-04-01T04:54:11;94805.44;;;7.69;82.33
29239;BME280;16267;48.194;11.546;2023-04-01T04:56:37;94802.13;;;7.61;81.73
29239;BME280;16267;48.194;11.546;2023-04-01T04:59:03;94816.81;;;7.73;81.46
29239;BME280;16267;48.194;11.546;2023-04-01T05:01:28;94813.53;;;7.65;81.46
29239;BME280;16267;48.194;11.546;2023-04-01T05:03:54;94808.66;;;7.60;81.59
29239;BME280;16267;48.194;11.546;2023-04-01T05:06:21;94810.50;;;7.63;82.40
29239;BME280;16267;48.194;11.546;2023-04-01T05:08:46;94804.81;;;7.61;81.46
29239;BME280;16267;48.194;11.546;2023-04-01T05:11:18;94810.06;;;7.65;81.28
29239;BME280;16267;48.194;11.546;2023-04-01T05:13:45;94809.06;;;7.78;81.28
29239;BME280;16267;48.194;11.546;2023-04-01T05:16:17;94806.41;;;7.78;80.96
29239;BME280;16267;48.194;11.546;2023-04-01T05:18:43;94798.94;;;7.90;80.67
29239;BME280;16267;48.194;11.546;2023-04-01T05:21:12;94805.88;;;7.87;80.18
29239;BME280;16267;48.194;11.546;2023-04-01T05:23:38;94805.59;;;7.81;80.07
29239;BME280;16267;48.194;11.546;2023-04-01T05:26:13;94802.50;;;7.83;79.78
29239;BME280;16267;48.194;11.546;2023-04-01T05:28:39;94792.16;;;7.85;79.78
29239;BME280;16267;48.194;11.546;2023-04-01T05:31:06;94804.69;;;7.88;79.43
29239;BME280;16267;48.194;11.546;2023-04-01T05:33:33;94800.94;;;7.86;78.85
29239;BME280;16267;48.194;11.546;2023-04-01T05:36:14;94803.88;;;7.91;79.03
29239;BME280;16267;48.194;11.546;2023-04-01T05:38:40;94803.81;;;7.95;78.08
29239;BME280;16267;48.194;11.546;2023-04-01T05:41:07;94798.69;;;8.04;77.78
29239;BME280;16267;48.194;11.546;2023-04-01T05:43:36;94799.69;;;8.10;77.38
29239;BME280;16267;48.194;11.546;2023-04-01T05:46:02;94799.78;;;8.07;77.01
29239;BME280;16267;48.194;11.546;2023-04-01T05:48:28;94792.50;;;8.07;76.90
29239;BME280;16267;48.194;11.546;2023-04-01T05:50:54;94791.75;;;8.07;76.70
29239;BME280;16267;48.194;11.546;2023-04-01T05:53:20;94799.97;;;8.16;76.93
29239;BME280;16267;48.194;11.546;2023-04-01T05:55:46;94806.28;;;7.86;76.02
29239;BME280;16267;48.194;11.546;2023-04-01T05:58:11;94791.34;;;8.08;76.20
29239;BME280;16267;48.194;11.546;2023-04-01T06:00:37;94796.69;;;8.08;75.65
29239;BME280;16267;48.194;11.546;2023-04-01T06:03:03;94795.44;;;8.13;75.91
29239;BME280;16267;48.194;11.546;2023-04-01T06:05:36;94806.41;;;8.18;75.22
29239;BME280;16267;48.194;11.546;2023-04-01T06:08:14;94793.94;;;8.12;75.51
29239;BME280;16267;48.194;11.546;2023-04-01T06:11:27;94806.69;;;8.24;74.75
29239;BME280;16267;48.194;11.546;2023-04-01T06:15:18;94806.59;;;8.27;74.49
29239;BME280;16267;48.194;11.546;2023-04-01T06:20:23;94797.66;;;8.18;74.20
29239;BME280;16267;48.194;11.546;2023-04-01T06:26:29;94798.38;;;8.38;73.10
29239;BME280;16267;48.194;11.546;2023-04-01T06:35:02;94793.34;;;8.60;72.63
29239;BME280;16267;48.194;11.546;2023-04-01T06:41:02;94796.69;;;8.64;70.65
29239;BME280;16267;48.194;11.546;2023-04-01T06:49:33;94801.03;;;8.75;70.10
29239;BME280;16267;48.194;11.546;2023-04-01T06:56:18;94795.88;;;9.00;68.66
29239;BME280;16267;48.194;11.546;2023-04-01T06:59:12;94809.50;;;9.06;68.04
29239;BME280;16267;48.194;11.546;2023-04-01T07:01:57;94805.00;;;9.03;66.93
29239;BME280;16267;48.194;11.546;2023-04-01T07:04:30;94810.44;;;9.15;67.33
29239;BME280;16267;48.194;11.546;2023-04-01T07:10:58;94808.50;;;9.16;67.83
29239;BME280;16267;48.194;11.546;2023-04-01T07:13:45;94816.13;;;9.18;67.48
29239;BME280;16267;48.194;11.546;2023-04-01T07:16:39;94815.28;;;9.21;67.03
29239;BME280;16267;48.194;11.546;2023-04-01T07:22:04;94811.84;;;9.36;65.35
29239;BME280;16267;48.194;11.546;2023-04-01T07:24:37;94816.03;;;9.37;65.02
29239;BME280;16267;48.194;11.546;2023-04-01T07:27:09;94815.69;;;9.52;66.16
29239;BME280;16267;48.194;11.546;2023-04-01T07:29:36;94806.38;;;9.56;65.28
29239;BME280;16267;48.194;11.546;2023-04-01T07:32:31;94815.81;;;9.61;64.71
29239;BME280;16267;48.194;11.546;2023-04-01T07:36:17;94806.47;;;9.53;64.36
29239;BME280;16267;48.194;11.546;2023-04-01T07:41:23;94813.16;;;9.61;64.86
29239;BME280;16267;48.194;11.546;2023-04-01T07:55:50;94819.19;;;9.49;63.92
29239;BME280;16267;48.194;11.546;2023-04-01T07:58:35;94821.66;;;9.72;64.70
29239;BME280;16267;48.194;11.546;2023-04-01T08:01:36;94813.78;;;9.81;64.01
29239;BME280;16267;48.194;11.546;2023-04-01T08:06:53;94828.28;;;9.84;63.16
29239;BME280;16267;48.194;11.546;2023-04-01T08:09:47;94831.22;;;9.73;62.60
29239;BME280;16267;48.194;11.546;2023-04-01T08:20:51;94835.84;;;9.73;60.82
29239;BME280;16267;48.194;11.546;2023-04-01T08:23:32;94812.09;;;9.88;61.98
29239;BME280;16267;48.194;11.546;2023-04-01T08:34:28;94811.94;;;10.37;61.42
29239;BME280;16267;48.194;11.546;2023-04-01T08:37:19;94802.41;;;10.48;59.72
29239;BME280;16267;48.194;11.546;2023-04-01T08:43:32;94794.88;;;10.69;58.27
29239;BME280;16267;48.194;11.546;2023-04-01T08:57:59;94800.13;;;11.11;58.52
29239;BME280;16267;48.194;11.546;2023-04-01T09:00:49;94804.41;;;11.08;57.99
29239;BME280;16267;48.194;11.546;2023-04-01T09:06:33;94785.56;;;10.86;56.11
29239;BME280;16267;48.194;11.546;2023-04-01T09:09:59;94792.75;;;10.89;56.04
29239;BME280;16267;48.194;11.546;2023-04-01T09:13:24;94802.72;;;10.89;56.55
29239;BME280;16267;48.194;11.546;2023-04-01T09:21:37;94791.19;;;11.14;55.51
29239;BME280;16267;48.194;11.546;2023-04-01T09:45:04;94778.91;;;11.38;55.11
29239;BME280;16267;48.194;11.546;2023-04-01T09:48:19;94764.53;;;11.67;55.42
29239;BME280;16267;48.194;11.546;2023-04-01T09:51:15;94769.28;;;11.85;54.40
29239;BME280;16267;48.194;11.546;2023-04-01T10:00:32;94750.16;;;12.05;53.61
29239;BME280;16267;48.194;11.546;2023-04-01T10:06:33;94763.63;;;12.05;52.86
29239;BME280;16267;48.194;11.546;2023-04-01T10:15:44;94760.13;;;11.95;52.47
29239;BME280;16267;48.194;11.546;2023-04-01T11:15:14;94778.72;;;11.68;61.43
29239;BME280;16267;48.194;11.546;2023-04-01T11:23:50;94784.06;;;11.46;60.22
29239;BME280;16267;48.194;11.546;2023-04-01T11:35:17;94802.78;;;11.71;64.32
29239;BME280;16267;48.194;11.546;2023-04-01T11:43:58;94810.06;;;11.36;67.57
29239;BME280;16267;48.194;11.546;2023-04-01T12:10:02;94833.44;;;9.91;80.63
29239;BME280;16267;48.194;11.546;2023-04-01T12:12:46;94830.16;;;9.83;82.19
29239;BME280;16267;48.194;11.546;2023-04-01T12:21:38;94821.97;;;9.91;81.72
29239;BME280;16267;48.194;11.546;2023-04-01T12:24:29;94819.56;;;9.80;80.91
29239;BME280;16267;48.194;11.546;2023-04-01T12:27:31;94816.63;;;9.74;81.38
29239;BME280;16267;48.194;11.546;2023-04-01T12:30:32;94820.13;;;9.42;82.61
29239;BME280;16267;48.194;11.546;2023-04-01T12:33:33;94837.84;;;9.52;81.54
29239;BME280;16267;48.194;11.546;2023-04-01T12:45:31;94821.88;;;9.49;82.47
29239;BME280;16267;48.194;11.546;2023-04-01T12:51:20;94838.09;;;9.58;82.14
29239;BME280;16267;48.194;11.546;2023-04-01T13:17:17;94837.63;;;9.30;80.48
29239;BME280;16267;48.194;11.546;2023-04-01T13:28:59;94840.22;;;9.34;80.84
29239;BME280;16267;48.194;11.546;2023-04-01T13:44:16;94851.44;;;9.45;84.45
29239;BME280;16267;48.194;11.546;2023-04-01T13:47:39;94850.50;;;9.03;84.66
29239;BME280;16267;48.194;11.546;2023-04-01T13:56:41;94840.28;;;9.30;84.73
29239;BME280;16267;48.194;11.546;2023-04-01T13:59:39;94838.03;;;9.45;83.11
29239;BME280;16267;48.194;11.546;2023-04-01T14:06:23;94846.00;;;9.32;83.39
29239;BME280;16267;48.194;11.546;2023-04-01T14:23:09;94854.38;;;9.34;80.87
29239;BME280;16267;48.194;11.546;2023-04-01T14:31:38;94854.69;;;9.36;80.30
29239;BME280;16267;48.194;11.546;2023-04-01T14:46:12;94850.00;;;9.57;82.71
29239;BME280;16267;48.194;11.546;2023-04-01T14:48:59;94850.16;;;9.66;82.96
29239;BME280;16267;48.194;11.546;2023-04-01T14:51:38;94852.25;;;9.58;81.10
29239;BME280;16267;48.194;11.546;2023-04-01T14:54:30;94858.13;;;9.53;81.45
29239;BME280;16267;48.194;11.546;2023-04-01T14:57:16;94850.25;;;9.63;81.63
29239;BME280;16267;48.194;11.546;2023-04-01T15:02:50;94845.63;;;9.63;81.97
29239;BME280;16267;48.194;11.546;2023-04-01T15:08:57;94854.75;;;9.66;81.08
29239;BME280;16267;48.194;11.546;2023-04-01T15:23:45;94860.03;;;9.53;79.77
29239;BME280;16267;48.194;11.546;2023-04-01T15:29:47;94862.91;;;9.46;79.91
29239;BME280;16267;48.194;11.546;2023-04-01T15:38:36;94881.22;;;9.47;81.44
29239;BME280;16267;48.194;11.546;2023-04-01T15:44:56;94873.59;;;9.62;80.70
29239;BME280;16267;48.194;11.546;2023-04-01T15:52:44;94882.47;;;9.59;77.78
29239;BME280;16267;48.194;11.546;2023-04-01T16:04:32;94881.72;;;9.58;73.02
29239;BME280;16267;48.194;11.546;2023-04-01T16:13:28;94881.31;;;9.60;71.07
29239;BME280;16267;48.194;11.546;2023-04-01T16:16:23;94881.16;;;9.51;71.73
29239;BME280;16267;48.194;11.546;2023-04-01T16:24:38;94889.75;;;9.58;70.22
29239;BME280;16267;48.194;11.546;2023-04-01T16:33:07;94888.84;;;9.65;69.35
29239;BME280;16267;48.194;11.546;2023-04-01T16:38:49;94886.06;;;9.69;69.20
29239;BME280;16267;48.194;11.546;2023-04-01T16:41:24;94890.91;;;9.74;68.80
29239;BME280;16267;48.194;11.546;2023-04-01T16:43:56;94894.78;;;9.73;68.54
29239;BME280;16267;48.194;11.546;2023-04-01T16:46:57;94882.72;;;9.81;69.66
29239;BME280;16267;48.194;11.546;2023-04-01T16:49:46;94896.13;;;9.81;68.85
29239;BME280;16267;48.194;11.546;2023-04-01T16:52:29;94887.22;;;9.84;68.78
29239;BME280;16267;48.194;11.546;2023-04-01T16:55:12;94898.00;;;9.80;68.75
29239;BME280;16267;48.194;11.546;2023-04-01T16:57:56;94897.03;;;9.74;68.49
29239;BME280;16267;48.194;11.546;2023-04-01T17:00:41;94901.13;;;9.79;67.81
29239;BME280;16267;48.194;11.546;2023-04-01T17:03:28;94901.53;;;9.77;67.54
29239;BME280;16267;48.194;11.546;2023-04-01T17:08:55;94898.09;;;9.77;67.30
29239;BME280;16267;48.194;11.546;2023-04-01T17:17:37;94906.56;;;9.75;66.03
29239;BME280;16267;48.194;11.546;2023-04-01T17:20:46;94916.97;;;9.57;66.38
29239;BME280;16267;48.194;11.546;2023-04-01T17:32:07;94921.31;;;9.51;65.30
29239;BME280;16267;48.194;11.546;2023-04-01T17:37:43;94918.81;;;9.60;65.86
29239;BME280;16267;48.194;11.546;2023-04-01T17:45:54;94926.34;;;9.49;65.63
29239;BME280;16267;48.194;11.546;2023-04-01T17:48:44;94926.84;;;9.60;66.12
29239;BME280;16267;48.194;11.546;2023-04-01T17:51:39;94929.69;;;9.53;65.64
29239;BME280;16267;48.194;11.546;2023-04-01T17:54:18;94937.06;;;9.49;65.63
29239;BME280;16267;48.194;11.546;2023-04-01T18:08:39;94943.00;;;9.56;66.39
29239;BME280;16267;48.194;11.546;2023-04-01T18:18:04;94947.94;;;9.58;66.17
29239;BME280;16267;48.194;11.546;2023-04-01T18:20:31;94959.47;;;9.55;65.58
29239;BME280;16267;48.194;11.546;2023-04-01T18:25:50;94972.53;;;9.53;65.90
29239;BME280;16267;48.194;11.546;2023-04-01T18:28:59;94964.84;;;9.55;66.10
29239;BME280;16267;48.194;11.546;2023-04-01T18:31:36;94968.44;;;9.48;66.73
29239;BME280;16267;48.194;11.546;2023-04-01T18:34:39;94971.44;;;9.50;67.43
29239;BME280;16267;48.194;11.546;2023-04-01T18:37:32;94973.69;;;9.35;68.28
29239;BME280;16267;48.194;11.546;2023-04-01T18:40:31;94966.84;;;9.51;69.11
29239;BME280;16267;48.194;11.546;2023-04-01T18:46:25;94970.44;;;9.44;69.06
29239;BME280;16267;48.194;11.546;2023-04-01T18:57:54;94997.94;;;9.28;69.52
29239;BME280;16267;48.194;11.546;2023-04-01T19:00:46;95001.56;;;9.38;70.23
29239;BME280;16267;48.194;11.546;2023-04-01T19:06:31;95003.38;;;9.25;71.73
29239;BME280;16267;48.194;11.546;2023-04-01T19:15:25;95005.66;;;9.26;71.33
29239;BME280;16267;48.194;11.546;2023-04-01T19:21:10;95005.88;;;9.15;71.90
29239;BME280;16267;48.194;11.546;2023-04-01T19:24:20;95014.81;;;9.25;71.84
29239;BME280;16267;48.194;11.546;2023-04-01T19:32:58;95031.81;;;9.19;72.69
29239;BME280;16267;48.194;11.546;2023-04-01T19:35:47;95036.19;;;9.09;73.06
29239;BME280;16267;48.194;11.546;2023-04-01T19:53:36;95046.91;;;9.09;74.10
29239;BME280;16267;48.194;11.546;2023-04-01T19:56:41;95048.81;;;9.08;73.91
29239;BME280;16267;48.194;11.546;2023-04-01T19:59:35;95048.97;;;9.01;73.41
29239;BME280;16267;48.194;11.546;2023-04-01T20:02:39;95049.81;;;8.98;74.29
29239;BME280;16267;48.194;11.546;2023-04-01T20:05:36;95045.47;;;9.04;73.82
29239;BME280;16267;48.194;11.546;2023-04-01T20:08:33;95057.97;;;8.91;74.31
29239;BME280;16267;48.194;11.546;2023-04-01T20:16:12;95067.75;;;8.78;74.44
29239;BME280;16267;48.194;11.546;2023-04-01T20:18:59;95067.53;;;8.68;75.29
29239;BME280;16267;48.194;11.546;2023-04-01T20:21:43;95064.25;;;8.81;75.29
29239;BME280;16267;48.194;11.546;2023-04-01T20:26:45;95072.28;;;8.81;74.58
29239;BME280;16267;48.194;11.546;2023-04-01T20:40:36;95081.41;;;8.83;74.65
29239;BME280;16267;48.194;11.546;2023-04-01T20:46:29;95075.78;;;8.78;75.22
29239;BME280;16267;48.194;11.546;2023-04-01T20:51:39;95083.25;;;8.86;74.39
29239;BME280;16267;48.194;11.546;2023-04-01T20:57:31;95086.84;;;8.80;74.75
29239;BME280;16267;48.194;11.546;2023-04-01T21:03:18;95090.53;;;8.86;75.05
29239;BME280;16267;48.194;11.546;2023-04-01T21:09:15;95097.41;;;8.87;74.59
29239;BME280;16267;48.194;11.546;2023-04-01T21:38:43;95113.91;;;8.62;75.97
29239;BME280;16267;48.194;11.546;2023-04-01T21:44:41;95120.75;;;8.39;76.73
29239;BME280;16267;48.194;11.546;2023-04-01T22:07:23;95140.81;;;8.51;76.44
29239;BME280;16267;48.194;11.546;2023-04-01T22:16:53;95140.69;;;8.58;76.08
29239;BME280;16267;48.194;11.546;2023-04-01T22:22:18;95145.94;;;8.65;76.10
29239;BME280;16267;48.194;11.546;2023-04-01T22:25:07;95141.69;;;8.68;75.68
29239;BME280;16267;48.194;11.546;2023-04-01T22:27:54;95147.38;;;8.70;75.76
29239;BME280;16267;48.194;11.546;2023-04-01T22:30:27;95148.47;;;8.73;75.13
29239;BME280;16267;48.194;11.546;2023-04-01T22:33:26;95144.00;;;8.66;75.08
29239;BME280;16267;48.194;11.546;2023-04-01T22:39:39;95148.34;;;8.56;76.21
29239;BME280;16267;48.194;11.546;2023-04-01T22:42:47;95146.41;;;8.60;76.71
29239;BME280;16267;48.194;11.546;2023-04-01T22:45:48;95142.31;;;8.52;77.07
29239;BME280;16267;48.194;11.546;2023-04-01T22:48:46;95157.19;;;8.53;78.10
29239;BME280;16267;48.194;11.546;2023-04-01T22:51:47;95153.25;;;8.61;78.10
29239;BME280;16267;48.194;11.546;2023-04-01T22:54:53;95160.28;;;8.52;77.71
29239;BME280;16267;48.194;11.546;2023-04-01T23:00:06;95153.03;;;8.52;77.82
29239;BME280;16267;48.194;11.546;2023-04-01T23:03:04;95151.47;;;8.55;76.72
29239;BME280;16267;48.194;11.546;2023-04-01T23:05:28;95153.03;;;8.52;77.26
29239;BME280;16267;48.194;11.546;2023-04-01T23:10:58;95157.72;;;8.44;76.94
29239;BME280;16267;48.194;11.546;2023-04-01T23:13:35;95170.81;;;8.35;76.80
29239;BME280;16267;48.194;11.546;2023-04-01T23:16:04;95164.66;;;8.38;76.81
29239;BME280;16267;48.194;11.546;2023-04-01T23:21:44;95168.38;;;8.48;76.71
29239;BME280;16267;48.194;11.546;2023-04-01T23:24:44;95171.53;;;8.39;77.16
29239;BME280;16267;48.194;11.546;2023-04-01T23:29:46;95170.81;;;8.35;76.51
29239;BME280;16267;48.194;11.546;2023-04-01T23:32:19;95175.69;;;8.44;76.34
29239;BME280;16267;48.194;11.546;2023-04-01T23:34:52;95175.97;;;8.49;76.47
29239;BME280;16267;48.194;11.546;2023-04-01T23:37:20;95182.59;;;8.41;76.55
29239;BME280;16267;48.194;11.546;2023-04-01T23:39:50;95183.03;;;8.40;76.01
29239;BME280;16267;48.194;11.546;2023-04-01T23:44:57;95176.25;;;8.28;77.00
29239;BME280;16267;48.194;11.546;2023-04-01T23:47:39;95176.63;;;8.30;77.13
29239;BME280;16267;48.194;11.546;2023-04-01T23:50:22;95177.03;;;8.29;77.33
29239;BME280;16267;48.194;11.546;2023-04-01T23:53:03;95172.38;;;8.33;77.13
29239;BME280;16267;48.194;11.546;2023-04-01T23:55:34;95172.31;;;8.36;76.91
